sensor_id;sensor_type;location;lat;lon;timestamp;pressure;altitude;pressure_sealevel;temperature;humidity
25759;BME280;13604;52.496;13.456;2024-03-25T00:00:34;99353.94;;;4.32;100.00
25759;BME280;13604;52.496;13.456;2024-03-25T00:02:59;99344.28;;;4.10;100.00
25759;BME280;13604;52.496;13.456;2024-03-25T00:05:24;99331.03;;;4.02;100.00
25759;BME280;13604;52.496;13.456;2024-03-25T00:07:52;99360.94;;;4.16;100.00
25759;BME280;13604;52.496;13.456;2024-03-25T00:10:18;99357.53;;;4.17;100.00
25759;BME280;13604;52.496;13.456;2024-03-25T00:12:45;99338.09;;;4.06;100.00
25759;BME280;13604;52.496;13.456;2024-03-25T00:15:10;99357.38;;;4.14;100.00
25759;BME280;13604;52.496;13.456;2024-03-25T00:17:36;99354.00;;;4.15;100.00
25759;BME280;13604;52.496;13.456;2024-03-25T00:20:01;99360.94;;;4.16;100.00
25759;BME280;13604;52.496;13.456;2024-03-25T00:22:26;99356.50;;;4.14;100.00
25759;BME280;13604;52.496;13.456;2024-03-25T00:24:52;99354.44;;;4.07;100.00
25759;BME280;13604;52.496;13.456;2024-03-25T00:27:17;99349.53;;;4.11;100.00
25759;BME280;13604;52.496;13.456;2024-03-25T00:29:43;99350.31;;;4.10;100.00
25759;BME280;13604;52.496;13.456;2024-03-25T00:32:09;99357.44;;;4.16;100.00
25759;BME280;13604;52.496;13.456;2024-03-25T00:34:35;99371.25;;;4.16;100.00
25759;BME280;13604;52.496;13.456;2024-03-25T00:37:02;99377.56;;;4.23;100.00
25759;BME280;13604;52.496;13.456;2024-03-25T00:39:27;99363.34;;;4.13;100.00
25759;BME280;13604;52.496;13.456;2024-03-25T00:41:53;99382.50;;;4.18;100.00
25759;BME280;13604;52.496;13.456;2024-03-25T00:44:19;99381.63;;;4.18;100.00
25759;BME280;13604;52.496;13.456;2024-03-25T00:46:44;99391.09;;;4.19;100.00
25759;BME280;13604;52.496;13.456;2024-03-25T00:49:10;99388.44;;;4.17;100.00
25759;BME280;13604;52.496;13.456;2024-03-25T00:51:36;99381.25;;;4.10;100.00
25759;BME280;13604;52.496;13.456;2024-03-25T00:54:01;99388.09;;;4.10;100.00
25759;BME280;13604;52.496;13.456;2024-03-25T00:56:28;99381.31;;;4.12;100.00
25759;BME280;13604;52.496;13.456;2024-03-25T00:58:53;99371.00;;;4.12;100.00
25759;BME280;13604;52.496;13.456;2024-03-25T01:01:18;99365.78;;;4.10;100.00
25759;BME280;13604;52.496;13.456;2024-03-25T01:03:43;99394.06;;;4.27;100.00
25759;BME280;13604;52.496;13.456;2024-03-25T01:06:09;99399.28;;;4.28;100.00
25759;BME280;13604;52.496;13.456;2024-03-25T01:08:34;99396.94;;;4.33;100.00
25759;BME280;13604;52.496;13.456;2024-03-25T01:10:59;99375.56;;;4.17;100.00
25759;BME280;13604;52.496;13.456;2024-03-25T01:13:25;99396.78;;;4.30;100.00
25759;BME280;13604;52.496;13.456;2024-03-25T01:15:51;99390.72;;;4.29;100.00
25759;BME280;13604;52.496;13.456;2024-03-25T01:18:17;99361.88;;;4.18;100.00
25759;BME280;13604;52.496;13.456;2024-03-25T01:20:42;99392.88;;;4.38;100.00
25759;BME280;13604;52.496;13.456;2024-03-25T01:23:07;99373.13;;;4.20;100.00
25759;BME280;13604;52.496;13.456;2024-03-25T01:25:32;99398.13;;;4.39;100.00
25759;BME280;13604;52.496;13.456;2024-03-25T01:27:58;99396.34;;;4.38;100.00
25759;BME280;13604;52.496;13.456;2024-03-25T01:30:23;99404.94;;;4.39;100.00
25759;BME280;13604;52.496;13.456;2024-03-25T01:32:48;99392.50;;;4.30;100.00
25759;BME280;13604;52.496;13.456;2024-03-25T01:35:14;99415.50;;;4.43;100.00
25759;BME280;13604;52.496;13.456;2024-03-25T01:37:41;99394.53;;;4.36;100.00
25759;BME280;13604;52.496;13.456;2024-03-25T01:40:07;99411.44;;;4.49;100.00
25759;BME280;13604;52.496;13.456;2024-03-25T01:42:32;99415.88;;;4.51;100.00
25759;BME280;13604;52.496;13.456;2024-03-25T01:44:57;99421.09;;;4.53;100.00
25759;BME280;13604;52.496;13.456;2024-03-25T01:47:23;99423.81;;;4.56;100.00
25759;BME280;13604;52.496;13.456;2024-03-25T01:49:49;99424.69;;;4.56;100.00
25759;BME280;13604;52.496;13.456;2024-03-25T01:52:15;99403.50;;;4.44;100.00
25759;BME280;13604;52.496;13.456;2024-03-25T01:54:40;99432.59;;;4.59;100.00
25759;BME280;13604;52.496;13.456;2024-03-25T01:57:06;99412.41;;;4.51;100.00
25759;BME280;13604;52.496;13.456;2024-03-25T01:59:32;99421.97;;;4.53;100.00
25759;BME280;13604;52.496;13.456;2024-03-25T02:01:57;99411.81;;;4.38;100.00
25759;BME280;13604;52.496;13.456;2024-03-25T02:04:24;99434.47;;;4.46;100.00
25759;BME280;13604;52.496;13.456;2024-03-25T02:06:49;99427.19;;;4.37;100.00
25759;BME280;13604;52.496;13.456;2024-03-25T02:09:16;99433.81;;;4.32;100.00
25759;BME280;13604;52.496;13.456;2024-03-25T02:11:42;99429.84;;;4.20;100.00
25759;BME280;13604;52.496;13.456;2024-03-25T02:14:08;99439.25;;;4.20;100.00
25759;BME280;13604;52.496;13.456;2024-03-25T02:16:34;99446.41;;;4.26;100.00
25759;BME280;13604;52.496;13.456;2024-03-25T02:18:59;99450.00;;;4.11;100.00
25759;BME280;13604;52.496;13.456;2024-03-25T02:21:25;99449.03;;;4.09;100.00
25759;BME280;13604;52.496;13.456;2024-03-25T02:23:53;99435.16;;;3.89;100.00
25759;BME280;13604;52.496;13.456;2024-03-25T02:26:19;99441.34;;;3.93;100.00
25759;BME280;13604;52.496;13.456;2024-03-25T02:28:45;99460.47;;;3.98;100.00
25759;BME280;13604;52.496;13.456;2024-03-25T02:31:10;99451.72;;;3.94;100.00
25759;BME280;13604;52.496;13.456;2024-03-25T02:33:35;99462.25;;;3.99;100.00
25759;BME280;13604;52.496;13.456;2024-03-25T02:36:01;99469.13;;;3.98;100.00
25759;BME280;13604;52.496;13.456;2024-03-25T02:38:26;99450.59;;;3.89;100.00
25759;BME280;13604;52.496;13.456;2024-03-25T02:40:52;99445.97;;;3.82;100.00
25759;BME280;13604;52.496;13.456;2024-03-25T02:43:18;99480.44;;;4.02;100.00
25759;BME280;13604;52.496;13.456;2024-03-25T02:45:46;99476.09;;;4.01;100.00
25759;BME280;13604;52.496;13.456;2024-03-25T02:48:11;99476.25;;;4.04;100.00
25759;BME280;13604;52.496;13.456;2024-03-25T02:50:36;99453.19;;;3.89;100.00
25759;BME280;13604;52.496;13.456;2024-03-25T02:53:02;99497.03;;;4.07;100.00
25759;BME280;13604;52.496;13.456;2024-03-25T02:55:27;99476.84;;;3.98;100.00
25759;BME280;13604;52.496;13.456;2024-03-25T02:57:52;99487.22;;;4.00;100.00
25759;BME280;13604;52.496;13.456;2024-03-25T03:00:18;99456.00;;;3.77;100.00
25759;BME280;13604;52.496;13.456;2024-03-25T03:02:43;99470.72;;;3.80;100.00
25759;BME280;13604;52.496;13.456;2024-03-25T03:05:08;99502.34;;;3.94;100.00
25759;BME280;13604;52.496;13.456;2024-03-25T03:07:34;99485.28;;;3.79;100.00
25759;BME280;13604;52.496;13.456;2024-03-25T03:09:59;99496.47;;;3.80;100.00
25759;BME280;13604;52.496;13.456;2024-03-25T03:12:25;99508.72;;;3.84;100.00
25759;BME280;13604;52.496;13.456;2024-03-25T03:14:50;99483.38;;;3.59;100.00
25759;BME280;13604;52.496;13.456;2024-03-25T03:17:15;99530.13;;;3.83;100.00
25759;BME280;13604;52.496;13.456;2024-03-25T03:19:40;99519.81;;;3.83;100.00
25759;BME280;13604;52.496;13.456;2024-03-25T03:22:06;99514.75;;;3.84;100.00
25759;BME280;13604;52.496;13.456;2024-03-25T03:24:31;99524.41;;;3.89;100.00
25759;BME280;13604;52.496;13.456;2024-03-25T03:26:57;99513.16;;;3.86;100.00
25759;BME280;13604;52.496;13.456;2024-03-25T03:29:22;99524.34;;;3.87;100.00
25759;BME280;13604;52.496;13.456;2024-03-25T03:31:48;99531.31;;;3.90;100.00
25759;BME280;13604;52.496;13.456;2024-03-25T03:34:13;99532.41;;;3.93;100.00
25759;BME280;13604;52.496;13.456;2024-03-25T03:36:38;99531.66;;;3.96;100.00
25759;BME280;13604;52.496;13.456;2024-03-25T03:39:05;99537.53;;;3.93;100.00
25759;BME280;13604;52.496;13.456;2024-03-25T03:41:30;99532.94;;;3.87;100.00
25759;BME280;13604;52.496;13.456;2024-03-25T03:43:56;99546.31;;;3.97;100.00
25759;BME280;13604;52.496;13.456;2024-03-25T03:46:21;99543.97;;;3.85;100.00
25759;BME280;13604;52.496;13.456;2024-03-25T03:48:46;99521.53;;;3.82;100.00
25759;BME280;13604;52.496;13.456;2024-03-25T03:51:12;99525.88;;;3.83;100.00
25759;BME280;13604;52.496;13.456;2024-03-25T03:53:37;99560.16;;;3.99;100.00
25759;BME280;13604;52.496;13.456;2024-03-25T03:56:04;99562.66;;;3.97;100.00
25759;BME280;13604;52.496;13.456;2024-03-25T03:58:30;99561.84;;;3.98;100.00
25759;BME280;13604;52.496;13.456;2024-03-25T04:00:56;99569.66;;;4.00;100.00
25759;BME280;13604;52.496;13.456;2024-03-25T04:03:21;99564.44;;;3.98;100.00
25759;BME280;13604;52.496;13.456;2024-03-25T04:05:46;99574.91;;;4.01;100.00
25759;BME280;13604;52.496;13.456;2024-03-25T04:08:12;99576.91;;;4.07;100.00
25759;BME280;13604;52.496;13.456;2024-03-25T04:10:38;99562.56;;;3.96;100.00
25759;BME280;13604;52.496;13.456;2024-03-25T04:13:04;99579.81;;;3.97;100.00
25759;BME280;13604;52.496;13.456;2024-03-25T04:15:36;99555.56;;;3.77;100.00
25759;BME280;13604;52.496;13.456;2024-03-25T04:18:02;99568.66;;;3.81;100.00
25759;BME280;13604;52.496;13.456;2024-03-25T04:20:27;99585.50;;;3.91;100.00
25759;BME280;13604;52.496;13.456;2024-03-25T04:22:56;99590.72;;;3.93;100.00
25759;BME280;13604;52.496;13.456;2024-03-25T04:25:22;99589.69;;;3.89;100.00
25759;BME280;13604;52.496;13.456;2024-03-25T04:27:47;99600.25;;;3.94;100.00
25759;BME280;13604;52.496;13.456;2024-03-25T04:30:13;99593.72;;;3.84;100.00
25759;BME280;13604;52.496;13.456;2024-03-25T04:32:39;99605.22;;;3.91;100.00
25759;BME280;13604;52.496;13.456;2024-03-25T04:35:07;99607.47;;;3.84;100.00
25759;BME280;13604;52.496;13.456;2024-03-25T04:37:33;99604.97;;;3.86;100.00
25759;BME280;13604;52.496;13.456;2024-03-25T04:39:59;99604.81;;;3.83;100.00
25759;BME280;13604;52.496;13.456;2024-03-25T04:42:24;99620.94;;;3.95;100.00
25759;BME280;13604;52.496;13.456;2024-03-25T04:44:49;99596.59;;;3.74;100.00
25759;BME280;13604;52.496;13.456;2024-03-25T04:47:15;99618.44;;;3.97;100.00
25759;BME280;13604;52.496;13.456;2024-03-25T04:49:41;99625.03;;;3.92;100.00
25759;BME280;13604;52.496;13.456;2024-03-25T04:52:07;99613.53;;;3.85;100.00
25759;BME280;13604;52.496;13.456;2024-03-25T04:54:32;99644.59;;;4.04;100.00
25759;BME280;13604;52.496;13.456;2024-03-25T04:56:57;99628.66;;;3.95;100.00
25759;BME280;13604;52.496;13.456;2024-03-25T04:59:22;99627.91;;;3.98;100.00
25759;BME280;13604;52.496;13.456;2024-03-25T05:01:48;99645.50;;;4.05;100.00
25759;BME280;13604;52.496;13.456;2024-03-25T05:04:13;99639.06;;;3.97;100.00
25759;BME280;13604;52.496;13.456;2024-03-25T05:06:38;99637.44;;;3.99;100.00
25759;BME280;13604;52.496;13.456;2024-03-25T05:09:04;99642.25;;;3.93;100.00
25759;BME280;13604;52.496;13.456;2024-03-25T05:11:31;99654.84;;;4.03;100.00
25759;BME280;13604;52.496;13.456;2024-03-25T05:13:56;99626.78;;;3.93;100.00
25759;BME280;13604;52.496;13.456;2024-03-25T05:16:21;99662.97;;;4.11;100.00
25759;BME280;13604;52.496;13.456;2024-03-25T05:18:47;99667.25;;;4.10;100.00
25759;BME280;13604;52.496;13.456;2024-03-25T05:21:12;99667.31;;;4.12;100.00
25759;BME280;13604;52.496;13.456;2024-03-25T05:23:37;99675.13;;;4.13;100.00
25759;BME280;13604;52.496;13.456;2024-03-25T05:26:02;99665.09;;;4.18;100.00
25759;BME280;13604;52.496;13.456;2024-03-25T05:28:28;99678.75;;;4.17;100.00
25759;BME280;13604;52.496;13.456;2024-03-25T05:30:53;99650.22;;;3.97;100.00
25759;BME280;13604;52.496;13.456;2024-03-25T05:33:18;99665.47;;;4.09;100.00
25759;BME280;13604;52.496;13.456;2024-03-25T05:35:44;99683.13;;;4.18;100.00
25759;BME280;13604;52.496;13.456;2024-03-25T05:38:09;99693.72;;;4.24;100.00
25759;BME280;13604;52.496;13.456;2024-03-25T05:40:34;99696.97;;;4.20;100.00
25759;BME280;13604;52.496;13.456;2024-03-25T05:42:59;99688.34;;;4.03;100.00
25759;BME280;13604;52.496;13.456;2024-03-25T05:45:25;99671.81;;;3.99;100.00
25759;BME280;13604;52.496;13.456;2024-03-25T05:47:50;99690.09;;;4.04;100.00
25759;BME280;13604;52.496;13.456;2024-03-25T05:50:16;99698.34;;;4.13;100.00
25759;BME280;13604;52.496;13.456;2024-03-25T05:52:41;99712.34;;;4.18;100.00
25759;BME280;13604;52.496;13.456;2024-03-25T05:55:07;99719.28;;;4.19;100.00
25759;BME280;13604;52.496;13.456;2024-03-25T05:57:32;99717.66;;;4.21;100.00
25759;BME280;13604;52.496;13.456;2024-03-25T05:59:58;99697.91;;;4.05;100.00
25759;BME280;13604;52.496;13.456;2024-03-25T06:02:23;99691.13;;;4.08;100.00
25759;BME280;13604;52.496;13.456;2024-03-25T06:04:49;99724.91;;;4.29;100.00
25759;BME280;13604;52.496;13.456;2024-03-25T06:07:14;99730.50;;;4.36;100.00
25759;BME280;13604;52.496;13.456;2024-03-25T06:09:39;99717.69;;;4.38;100.00
25759;BME280;13604;52.496;13.456;2024-03-25T06:12:05;99705.81;;;4.25;100.00
25759;BME280;13604;52.496;13.456;2024-03-25T06:14:30;99722.50;;;4.32;100.00
25759;BME280;13604;52.496;13.456;2024-03-25T06:16:56;99719.75;;;4.29;100.00
25759;BME280;13604;52.496;13.456;2024-03-25T06:19:21;99740.72;;;4.35;100.00
25759;BME280;13604;52.496;13.456;2024-03-25T06:21:46;99747.97;;;4.42;100.00
25759;BME280;13604;52.496;13.456;2024-03-25T06:24:12;99730.94;;;4.29;100.00
25759;BME280;13604;52.496;13.456;2024-03-25T06:26:37;99734.59;;;4.33;100.00
25759;BME280;13604;52.496;13.456;2024-03-25T06:29:02;99745.19;;;4.22;100.00
25759;BME280;13604;52.496;13.456;2024-03-25T06:31:28;99728.59;;;4.17;100.00
25759;BME280;13604;52.496;13.456;2024-03-25T06:34:12;99769.78;;;4.32;100.00
25759;BME280;13604;52.496;13.456;2024-03-25T06:36:42;99754.53;;;4.20;100.00
25759;BME280;13604;52.496;13.456;2024-03-25T06:39:08;99752.78;;;4.19;100.00
25759;BME280;13604;52.496;13.456;2024-03-25T06:41:33;99780.34;;;4.37;100.00
25759;BME280;13604;52.496;13.456;2024-03-25T06:43:59;99747.78;;;4.22;100.00
25759;BME280;13604;52.496;13.456;2024-03-25T06:46:24;99787.38;;;4.39;100.00
25759;BME280;13604;52.496;13.456;2024-03-25T06:48:49;99778.41;;;4.33;100.00
25759;BME280;13604;52.496;13.456;2024-03-25T06:51:16;99770.13;;;4.38;100.00
25759;BME280;13604;52.496;13.456;2024-03-25T06:53:41;99798.81;;;4.45;100.00
25759;BME280;13604;52.496;13.456;2024-03-25T06:56:07;99801.47;;;4.46;100.00
25759;BME280;13604;52.496;13.456;2024-03-25T06:58:32;99809.38;;;4.49;100.00
25759;BME280;13604;52.496;13.456;2024-03-25T07:01:04;99806.72;;;4.48;100.00
25759;BME280;13604;52.496;13.456;2024-03-25T07:03:30;99802.53;;;4.50;100.00
25759;BME280;13604;52.496;13.456;2024-03-25T07:05:56;99793.41;;;4.40;100.00
25759;BME280;13604;52.496;13.456;2024-03-25T07:08:22;99822.44;;;4.52;100.00
25759;BME280;13604;52.496;13.456;2024-03-25T07:10:48;99837.75;;;4.49;100.00
25759;BME280;13604;52.496;13.456;2024-03-25T07:13:13;99842.91;;;4.49;100.00
25759;BME280;13604;52.496;13.456;2024-03-25T07:15:39;99819.75;;;4.34;100.00
25759;BME280;13604;52.496;13.456;2024-03-25T07:18:04;99841.81;;;4.46;100.00
25759;BME280;13604;52.496;13.456;2024-03-25T07:20:30;99834.31;;;4.34;100.00
25759;BME280;13604;52.496;13.456;2024-03-25T07:22:56;99851.31;;;4.30;100.00
25759;BME280;13604;52.496;13.456;2024-03-25T07:25:22;99858.16;;;4.30;100.00
25759;BME280;13604;52.496;13.456;2024-03-25T07:27:48;99853.00;;;4.30;100.00
25759;BME280;13604;52.496;13.456;2024-03-25T07:30:16;99859.22;;;4.33;100.00
25759;BME280;13604;52.496;13.456;2024-03-25T07:32:41;99850.50;;;4.31;100.00
25759;BME280;13604;52.496;13.456;2024-03-25T07:35:07;99842.88;;;4.33;100.00
25759;BME280;13604;52.496;13.456;2024-03-25T07:37:34;99861.56;;;4.45;100.00
25759;BME280;13604;52.496;13.456;2024-03-25T07:39:59;99870.44;;;4.50;100.00
25759;BME280;13604;52.496;13.456;2024-03-25T07:42:25;99848.34;;;4.39;100.00
25759;BME280;13604;52.496;13.456;2024-03-25T07:44:50;99866.19;;;4.51;100.00
25759;BME280;13604;52.496;13.456;2024-03-25T07:47:15;99867.16;;;4.53;100.00
25759;BME280;13604;52.496;13.456;2024-03-25T07:49:41;99844.00;;;4.38;100.00
25759;BME280;13604;52.496;13.456;2024-03-25T07:52:06;99883.84;;;4.59;100.00
25759;BME280;13604;52.496;13.456;2024-03-25T07:54:32;99895.31;;;4.65;100.00
25759;BME280;13604;52.496;13.456;2024-03-25T07:56:57;99860.97;;;4.49;100.00
25759;BME280;13604;52.496;13.456;2024-03-25T07:59:22;99897.19;;;4.67;100.00
25759;BME280;13604;52.496;13.456;2024-03-25T08:01:48;99879.00;;;4.49;100.00
25759;BME280;13604;52.496;13.456;2024-03-25T08:04:13;99887.31;;;4.60;100.00
25759;BME280;13604;52.496;13.456;2024-03-25T08:06:38;99904.28;;;4.71;100.00
25759;BME280;13604;52.496;13.456;2024-03-25T08:09:04;99904.66;;;4.63;100.00
25759;BME280;13604;52.496;13.456;2024-03-25T08:11:32;99895.97;;;4.60;100.00
25759;BME280;13604;52.496;13.456;2024-03-25T08:13:58;99902.69;;;4.58;100.00
25759;BME280;13604;52.496;13.456;2024-03-25T08:16:23;99875.50;;;4.49;100.00
25759;BME280;13604;52.496;13.456;2024-03-25T08:18:49;99902.44;;;4.69;100.00
25759;BME280;13604;52.496;13.456;2024-03-25T08:21:15;99923.34;;;4.90;100.00
25759;BME280;13604;52.496;13.456;2024-03-25T08:23:40;99920.16;;;5.10;100.00
25759;BME280;13604;52.496;13.456;2024-03-25T08:26:06;99917.66;;;5.45;100.00
25759;BME280;13604;52.496;13.456;2024-03-25T08:28:31;99926.75;;;5.71;100.00
25759;BME280;13604;52.496;13.456;2024-03-25T08:30:57;99931.81;;;6.02;100.00
25759;BME280;13604;52.496;13.456;2024-03-25T08:33:22;99920.84;;;6.42;100.00
25759;BME280;13604;52.496;13.456;2024-03-25T08:35:47;99887.69;;;6.34;100.00
25759;BME280;13604;52.496;13.456;2024-03-25T08:38:13;99936.44;;;6.26;100.00
25759;BME280;13604;52.496;13.456;2024-03-25T08:40:38;99944.44;;;6.31;100.00
25759;BME280;13604;52.496;13.456;2024-03-25T08:43:05;99928.91;;;6.31;100.00
25759;BME280;13604;52.496;13.456;2024-03-25T08:45:30;99947.09;;;6.50;100.00
25759;BME280;13604;52.496;13.456;2024-03-25T08:47:55;99948.59;;;6.45;100.00
25759;BME280;13604;52.496;13.456;2024-03-25T08:50:21;99946.50;;;6.56;100.00
25759;BME280;13604;52.496;13.456;2024-03-25T08:52:46;99927.13;;;6.48;100.00
25759;BME280;13604;52.496;13.456;2024-03-25T08:55:11;99958.69;;;6.40;100.00
25759;BME280;13604;52.496;13.456;2024-03-25T08:57:37;99959.81;;;6.11;100.00
25759;BME280;13604;52.496;13.456;2024-03-25T09:00:02;99956.22;;;6.07;100.00
25759;BME280;13604;52.496;13.456;2024-03-25T09:02:29;99956.75;;;6.02;100.00
25759;BME280;13604;52.496;13.456;2024-03-25T09:04:54;99968.88;;;6.03;100.00
25759;BME280;13604;52.496;13.456;2024-03-25T09:07:19;99952.41;;;5.84;100.00
25759;BME280;13604;52.496;13.456;2024-03-25T09:09:45;99962.09;;;6.05;100.00
25759;BME280;13604;52.496;13.456;2024-03-25T09:12:28;99956.72;;;6.18;100.00
25759;BME280;13604;52.496;13.456;2024-03-25T09:14:54;99953.75;;;6.27;100.00
25759;BME280;13604;52.496;13.456;2024-03-25T09:17:19;99985.44;;;6.41;100.00
25759;BME280;13604;52.496;13.456;2024-03-25T09:19:44;99960.81;;;6.31;100.00
25759;BME280;13604;52.496;13.456;2024-03-25T09:22:10;99989.38;;;6.16;100.00
25759;BME280;13604;52.496;13.456;2024-03-25T09:24:35;99959.22;;;5.99;100.00
25759;BME280;13604;52.496;13.456;2024-03-25T09:27:01;99970.53;;;6.01;100.00
25759;BME280;13604;52.496;13.456;2024-03-25T09:29:26;99966.19;;;6.18;100.00
25759;BME280;13604;52.496;13.456;2024-03-25T09:31:51;99996.66;;;6.23;100.00
25759;BME280;13604;52.496;13.456;2024-03-25T09:34:16;99980.38;;;6.26;100.00
25759;BME280;13604;52.496;13.456;2024-03-25T09:36:42;99977.13;;;6.12;100.00
25759;BME280;13604;52.496;13.456;2024-03-25T09:39:07;100006.31;;;6.28;100.00
25759;BME280;13604;52.496;13.456;2024-03-25T09:41:35;99997.97;;;6.15;100.00
25759;BME280;13604;52.496;13.456;2024-03-25T09:44:01;100013.69;;;6.20;100.00
25759;BME280;13604;52.496;13.456;2024-03-25T09:46:30;100013.13;;;6.25;100.00
25759;BME280;13604;52.496;13.456;2024-03-25T09:48:55;100011.25;;;6.23;100.00
25759;BME280;13604;52.496;13.456;2024-03-25T09:51:21;100010.63;;;6.27;100.00
25759;BME280;13604;52.496;13.456;2024-03-25T09:53:46;100024.03;;;6.54;100.00
25759;BME280;13604;52.496;13.456;2024-03-25T09:56:15;100005.44;;;6.61;100.00
25759;BME280;13604;52.496;13.456;2024-03-25T09:58:41;100017.06;;;6.88;100.00
25759;BME280;13604;52.496;13.456;2024-03-25T10:01:09;100003.34;;;6.72;100.00
25759;BME280;13604;52.496;13.456;2024-03-25T10:03:34;100024.13;;;6.92;100.00
25759;BME280;13604;52.496;13.456;2024-03-25T10:05:59;100031.81;;;7.08;100.00
25759;BME280;13604;52.496;13.456;2024-03-25T10:08:25;100037.69;;;7.22;100.00
25759;BME280;13604;52.496;13.456;2024-03-25T10:10:55;100025.94;;;7.48;100.00
25759;BME280;13604;52.496;13.456;2024-03-25T10:13:24;100039.94;;;7.71;100.00
25759;BME280;13604;52.496;13.456;2024-03-25T10:15:49;100016.06;;;7.98;100.00
25759;BME280;13604;52.496;13.456;2024-03-25T10:18:15;100028.38;;;8.23;100.00
25759;BME280;13604;52.496;13.456;2024-03-25T10:20:53;100029.16;;;8.21;100.00
25759;BME280;13604;52.496;13.456;2024-03-25T10:23:23;100034.41;;;8.03;100.00
25759;BME280;13604;52.496;13.456;2024-03-25T10:25:48;100034.25;;;8.19;100.00
25759;BME280;13604;52.496;13.456;2024-03-25T10:28:14;100050.28;;;8.30;98.85
25759;BME280;13604;52.496;13.456;2024-03-25T10:30:40;100004.13;;;7.82;95.39
25759;BME280;13604;52.496;13.456;2024-03-25T10:33:07;100048.03;;;8.18;96.33
25759;BME280;13604;52.496;13.456;2024-03-25T10:35:34;100034.19;;;8.18;97.69
25759;BME280;13604;52.496;13.456;2024-03-25T10:38:02;100025.56;;;8.19;97.94
25759;BME280;13604;52.496;13.456;2024-03-25T10:40:31;100046.22;;;8.37;95.77
25759;BME280;13604;52.496;13.456;2024-03-25T10:43:04;100049.84;;;8.40;95.60
25759;BME280;13604;52.496;13.456;2024-03-25T10:45:35;100054.94;;;8.37;93.11
25759;BME280;13604;52.496;13.456;2024-03-25T10:48:09;100025.41;;;8.14;92.64
25759;BME280;13604;52.496;13.456;2024-03-25T10:50:39;100042.13;;;8.21;90.52
25759;BME280;13604;52.496;13.456;2024-03-25T10:53:05;100034.94;;;8.15;91.66
25759;BME280;13604;52.496;13.456;2024-03-25T10:55:31;100037.16;;;8.46;87.64
25759;BME280;13604;52.496;13.456;2024-03-25T10:57:59;100038.19;;;8.92;81.32
25759;BME280;13604;52.496;13.456;2024-03-25T11:00:25;100048.66;;;9.39;80.99
25759;BME280;13604;52.496;13.456;2024-03-25T11:02:52;100056.72;;;9.45;77.11
25759;BME280;13604;52.496;13.456;2024-03-25T11:05:18;100047.38;;;9.73;76.35
25759;BME280;13604;52.496;13.456;2024-03-25T11:07:44;100040.78;;;10.55;72.18
25759;BME280;13604;52.496;13.456;2024-03-25T11:10:11;100036.97;;;10.45;72.05
25759;BME280;13604;52.496;13.456;2024-03-25T11:12:38;100044.06;;;10.25;71.04
25759;BME280;13604;52.496;13.456;2024-03-25T11:15:04;100041.25;;;10.43;70.28
25759;BME280;13604;52.496;13.456;2024-03-25T11:17:30;100033.53;;;10.99;67.09
25759;BME280;13604;52.496;13.456;2024-03-25T11:20:25;100049.31;;;11.60;63.74
25759;BME280;13604;52.496;13.456;2024-03-25T11:22:53;100039.72;;;11.30;63.86
25759;BME280;13604;52.496;13.456;2024-03-25T11:25:20;100058.06;;;11.33;63.27
25759;BME280;13604;52.496;13.456;2024-03-25T11:27:46;100039.69;;;11.29;62.85
25759;BME280;13604;52.496;13.456;2024-03-25T11:30:13;100052.00;;;11.34;63.00
25759;BME280;13604;52.496;13.456;2024-03-25T11:33:04;100055.78;;;11.44;60.43
25759;BME280;13604;52.496;13.456;2024-03-25T11:35:30;100049.94;;;12.12;60.73
25759;BME280;13604;52.496;13.456;2024-03-25T11:37:55;100046.19;;;13.02;59.08
25759;BME280;13604;52.496;13.456;2024-03-25T11:40:20;100038.97;;;13.68;53.86
25759;BME280;13604;52.496;13.456;2024-03-25T11:42:46;100040.22;;;13.86;53.71
25759;BME280;13604;52.496;13.456;2024-03-25T11:45:16;100047.69;;;14.57;52.24
25759;BME280;13604;52.496;13.456;2024-03-25T11:47:42;100034.53;;;13.64;53.86
25759;BME280;13604;52.496;13.456;2024-03-25T11:50:09;100015.28;;;13.60;53.09
25759;BME280;13604;52.496;13.456;2024-03-25T11:52:34;100049.03;;;13.91;53.51
25759;BME280;13604;52.496;13.456;2024-03-25T11:55:00;100044.22;;;13.68;53.52
25759;BME280;13604;52.496;13.456;2024-03-25T11:57:25;100053.34;;;13.46;54.22
25759;BME280;13604;52.496;13.456;2024-03-25T11:59:51;100047.25;;;13.11;54.17
25759;BME280;13604;52.496;13.456;2024-03-25T12:02:16;100049.19;;;13.18;53.91
25759;BME280;13604;52.496;13.456;2024-03-25T12:04:43;100039.84;;;13.67;52.29
25759;BME280;13604;52.496;13.456;2024-03-25T12:07:11;100049.88;;;13.47;51.69
25759;BME280;13604;52.496;13.456;2024-03-25T12:09:36;100059.53;;;13.51;51.18
25759;BME280;13604;52.496;13.456;2024-03-25T12:12:20;100016.94;;;13.19;51.18
25759;BME280;13604;52.496;13.456;2024-03-25T12:14:45;100040.63;;;13.25;52.30
25759;BME280;13604;52.496;13.456;2024-03-25T12:17:11;100040.84;;;13.74;51.25
25759;BME280;13604;52.496;13.456;2024-03-25T12:19:36;100042.84;;;13.86;50.69
25759;BME280;13604;52.496;13.456;2024-03-25T12:22:01;100037.75;;;14.38;48.83
25759;BME280;13604;52.496;13.456;2024-03-25T12:24:28;100030.09;;;14.50;48.53
25759;BME280;13604;52.496;13.456;2024-03-25T12:26:54;100035.41;;;14.07;49.38
25759;BME280;13604;52.496;13.456;2024-03-25T12:29:19;100040.25;;;14.31;49.04
25759;BME280;13604;52.496;13.456;2024-03-25T12:31:54;100026.22;;;13.84;49.23
25759;BME280;13604;52.496;13.456;2024-03-25T12:34:19;100039.03;;;13.71;48.61
25759;BME280;13604;52.496;13.456;2024-03-25T12:36:44;100031.09;;;13.65;50.35
25759;BME280;13604;52.496;13.456;2024-03-25T12:39:15;100017.88;;;13.21;51.03
25759;BME280;13604;52.496;13.456;2024-03-25T12:41:40;100038.28;;;12.99;51.05